Terminal Aerodrome Forecast
Issued by NWS Cleveland, OH

Home | Current Version | Previous Version | Graphics & Text | Print | Product List | Glossary On
Versions: 1 2 3 4 5 6 7 8 9 10 11 12 13 14 15 16 17 18 19 20 21 22 23 24 25
809
FTUS41 KCLE 142030 AAA
TAFYNG
TAF AMD
KYNG 142030Z 1421/1518 22010KT P6SM VCSH OVC025
      TEMPO 1421/1423 BKN015
     FM142300 21010KT 5SM -SHRA OVC015
     FM150200 22008KT 3SM -SHRA BR OVC006
     FM150900 23008KT 5SM BR OVC003=

USA.gov is the U.S. government's official web portal to all federal, state and local government web resources and services.